Time,TemperatureF,DewpointF,PressureIn,WindDirection,WindDirectionDegrees,WindSpeedMPH,WindSpeedGustMPH,Humidity,HourlyPrecipIn,Conditions,Clouds,dailyrainin,SoftwareType,DateUTC
2013-03-20 00:09:00,39.2,-3.3,29.93,WNW,288,13.0,28.0,16,0.00,CLR,,0.00,WeatherDisplay:10.37,2013-03-20 04:09:00,
2013-03-20 00:19:00,38.8,-3.6,29.93,WNW,293,7.0,20.0,16,0.00,CLR,,0.00,WeatherDisplay:10.37,2013-03-20 04:19:00,
2013-03-20 00:29:00,38.7,-3.8,29.93,WNW,293,12.0,28.0,16,0.00,CLR,,0.00,WeatherDisplay:10.37,2013-03-20 04:29:00,
2013-03-20 00:39:00,38.6,-3.8,29.93,WNW,292,6.0,25.0,16,0.00,CLR,,0.00,WeatherDisplay:10.37,2013-03-20 04:39:00,
2013-03-20 00:49:00,37.5,-4.7,29.93,WNW,301,6.0,12.0,16,0.00,CLR,,0.00,WeatherDisplay:10.37,2013-03-20 04:49:00,
2013-03-20 00:59:00,36.9,-4.0,29.93,WNW,303,7.0,11.0,17,0.00,CLR,,0.00,WeatherDisplay:10.37,2013-03-20 04:59:00,
2013-03-20 01:09:00,36.4,-2.0,29.93,NW,318,3.0,12.0,19,0.00,CLR,,0.00,WeatherDisplay:10.37,2013-03-20 05:09:00,
2013-03-20 01:19:00,36.3,-2.1,29.93,WNW,294,6.0,12.0,19,0.00,CLR,,0.00,WeatherDisplay:10.37,2013-03-20 05:19:00,
2013-03-20 01:29:00,36.7,-4.1,29.93,WNW,294,15.0,19.0,17,0.00,CLR,,0.00,WeatherDisplay:10.37,2013-03-20 05:29:00,
2013-03-20 01:39:00,37.1,-3.8,29.93,NW,304,9.0,19.0,17,0.00,CLR,,0.00,WeatherDisplay:10.37,2013-03-20 05:39:00,
2013-03-20 01:49:00,37.0,-3.8,29.93,WNW,283,15.0,23.0,17,0.00,CLR,,0.00,WeatherDisplay:10.37,2013-03-20 05:49:00,
2013-03-20 01:59:00,37.0,-3.8,29.96,WNW,297,7.0,19.0,17,0.00,CLR,,0.00,WeatherDisplay:10.37,2013-03-20 05:59:00,
2013-03-20 02:09:00,36.9,-4.0,29.96,WNW,293,7.0,19.0,17,0.00,CLR,,0.00,WeatherDisplay:10.37,2013-03-20 06:09:00,
2013-03-20 02:19:00,36.5,-4.3,29.96,WNW,294,6.0,13.0,17,0.00,CLR,,0.00,WeatherDisplay:10.37,2013-03-20 06:19:00,
2013-03-20 02:29:00,36.1,-4.6,29.96,West,280,6.0,13.0,17,0.00,CLR,,0.00,WeatherDisplay:10.37,2013-03-20 06:29:00,
2013-03-20 02:39:00,35.8,-4.9,29.96,West,278,8.0,13.0,17,0.00,CLR,,0.00,WeatherDisplay:10.37,2013-03-20 06:39:00,
2013-03-20 02:49:00,35.8,-4.9,29.96,WNW,290,5.0,9.0,17,0.00,CLR,,0.00,WeatherDisplay:10.37,2013-03-20 06:49:00,
2013-03-20 02:59:00,35.6,-5.0,29.96,WNW,287,6.0,10.0,17,0.00,CLR,,0.00,WeatherDisplay:10.37,2013-03-20 06:59:00,
2013-03-20 03:09:00,35.4,-5.2,29.96,WNW,286,6.0,8.0,17,0.00,CLR,,0.00,WeatherDisplay:10.37,2013-03-20 07:09:00,
2013-03-20 03:19:00,34.8,-5.6,29.96,West,279,6.0,8.0,17,0.00,CLR,,0.00,WeatherDisplay:10.37,2013-03-20 07:19:00,
2013-03-20 03:29:00,34.5,-5.9,29.96,WNW,300,2.0,6.0,17,0.00,CLR,,0.00,WeatherDisplay:10.37,2013-03-20 07:29:00,
2013-03-20 03:39:00,33.4,-5.6,29.96,NW,312,2.0,6.0,18,0.00,CLR,,0.00,WeatherDisplay:10.37,2013-03-20 07:39:00,
2013-03-20 03:49:00,32.5,-6.4,29.96,WNW,284,2.0,4.0,18,0.00,CLR,,0.00,WeatherDisplay:10.37,2013-03-20 07:49:00,
2013-03-20 03:59:00,31.3,-7.4,29.96,WNW,299,0.0,4.0,18,0.00,CLR,,0.00,WeatherDisplay:10.37,2013-03-20 07:59:00,
2013-03-20 04:09:00,30.4,-7.0,29.96,NW,315,0.0,4.0,19,0.00,CLR,,0.00,WeatherDisplay:10.37,2013-03-20 08:09:00,
2013-03-20 04:19:00,31.5,-5.1,29.96,WNW,283,2.0,6.0,20,0.00,CLR,,0.00,WeatherDisplay:10.37,2013-03-20 08:19:00,
2013-03-20 04:29:00,32.4,-4.3,29.96,WNW,291,0.0,8.0,20,0.00,CLR,,0.00,WeatherDisplay:10.37,2013-03-20 08:29:00,
2013-03-20 04:39:00,32.5,-4.2,29.96,WNW,290,3.0,8.0,20,0.00,CLR,,0.00,WeatherDisplay:10.37,2013-03-20 08:39:00,
2013-03-20 04:49:00,31.8,-4.8,29.96,WNW,287,3.0,9.0,20,0.00,CLR,,0.00,WeatherDisplay:10.37,2013-03-20 08:49:00,
2013-03-20 04:59:00,32.5,-4.2,29.96,NW,306,5.0,7.0,20,0.00,CLR,,0.00,WeatherDisplay:10.37,2013-03-20 08:59:00,
2013-03-20 05:09:00,32.4,-4.3,29.96,WNW,295,3.0,5.0,20,0.00,CLR,,0.00,WeatherDisplay:10.37,2013-03-20 09:09:00,
2013-03-20 05:19:00,32.4,-4.3,29.96,NW,314,0.0,6.0,20,0.00,CLR,,0.00,WeatherDisplay:10.37,2013-03-20 09:19:00,
2013-03-20 05:29:00,32.0,-4.6,29.96,NW,318,3.0,6.0,20,0.00,CLR,,0.00,WeatherDisplay:10.37,2013-03-20 09:29:00,
2013-03-20 05:39:00,31.3,-5.2,29.93,WNW,287,5.0,10.0,20,0.00,CLR,,0.00,WeatherDisplay:10.37,2013-03-20 09:39:00,
2013-03-20 05:49:00,31.6,-5.0,29.93,West,281,5.0,12.0,20,0.00,CLR,,0.00,WeatherDisplay:10.37,2013-03-20 09:49:00,
2013-03-20 05:59:00,32.7,-4.0,29.96,West,281,3.0,11.0,20,0.00,CLR,,0.00,WeatherDisplay:10.37,2013-03-20 09:59:00,
2013-03-20 06:09:00,32.7,-4.0,29.96,NW,308,3.0,6.0,20,0.00,CLR,,0.00,WeatherDisplay:10.37,2013-03-20 10:09:00,
2013-03-20 06:19:00,31.9,-4.7,29.96,WNW,292,3.0,6.0,20,0.00,CLR,,0.00,WeatherDisplay:10.37,2013-03-20 10:19:00,
2013-03-20 06:29:00,31.4,-5.2,29.96,West,275,2.0,6.0,20,0.00,CLR,,0.00,WeatherDisplay:10.37,2013-03-20 10:29:00,
2013-03-20 06:39:00,30.6,-5.8,29.96,WNW,283,2.0,4.0,20,0.00,CLR,,0.00,WeatherDisplay:10.37,2013-03-20 10:39:00,
2013-03-20 06:49:00,30.2,-6.1,29.96,WNW,285,5.0,6.0,20,0.00,CLR,,0.00,WeatherDisplay:10.37,2013-03-20 10:49:00,
2013-03-20 06:59:00,30.9,-5.5,29.96,WNW,283,3.0,6.0,20,0.00,CLR,,0.00,WeatherDisplay:10.37,2013-03-20 10:59:00,
2013-03-20 07:09:00,30.6,-5.8,29.96,WNW,291,3.0,8.0,20,0.00,CLR,,0.00,WeatherDisplay:10.37,2013-03-20 11:09:00,
2013-03-20 07:19:00,30.6,-5.8,29.96,WNW,293,5.0,6.0,20,0.00,CLR,,0.00,WeatherDisplay:10.37,2013-03-20 11:19:00,
2013-03-20 07:29:00,30.4,-6.0,29.96,WNW,287,0.0,7.0,20,0.00,CLR,,0.00,WeatherDisplay:10.37,2013-03-20 11:29:00,
2013-03-20 07:39:00,30.0,-6.3,29.96,WNW,284,0.0,4.0,20,0.00,CLR,,0.00,WeatherDisplay:10.37,2013-03-20 11:39:00,
2013-03-20 07:49:00,29.6,-6.6,29.96,NNW,339,0.0,0.0,20,0.00,CLR,,0.00,WeatherDisplay:10.37,2013-03-20 11:49:00,
2013-03-20 07:59:00,28.8,-7.3,29.96,NNW,342,0.0,0.0,20,0.00,CLR,,0.00,WeatherDisplay:10.37,2013-03-20 11:59:00,
2013-03-20 08:09:00,29.8,-3.6,29.99,NW,326,0.0,3.0,23,0.00,CLR,,0.00,WeatherDisplay:10.37,2013-03-20 12:09:00,
2013-03-20 08:19:00,31.5,-2.1,29.99,WNW,285,0.0,4.0,23,0.00,CLR,,0.00,WeatherDisplay:10.37,2013-03-20 12:19:00,
2013-03-20 08:29:00,33.1,1.0,29.99,WNW,299,2.0,4.0,25,0.00,CLR,,0.00,WeatherDisplay:10.37,2013-03-20 12:29:00,
2013-03-20 08:39:00,34.2,-0.8,29.96,West,274,6.0,8.0,22,0.00,CLR,,0.00,WeatherDisplay:10.37,2013-03-20 12:39:00,
2013-03-20 08:49:00,35.1,-2.1,29.96,West,274,6.0,9.0,20,0.00,CLR,,0.00,WeatherDisplay:10.37,2013-03-20 12:49:00,
2013-03-20 08:59:00,35.8,-2.5,29.99,West,281,7.0,9.0,19,0.00,CLR,,0.00,WeatherDisplay:10.37,2013-03-20 12:59:00,
2013-03-20 09:09:00,36.1,-2.2,29.99,West,281,7.0,10.0,19,0.00,CLR,,0.00,WeatherDisplay:10.37,2013-03-20 13:09:00,
2013-03-20 09:19:00,36.9,-1.6,29.99,WNW,286,10.0,13.0,19,0.00,CLR,,0.00,WeatherDisplay:10.37,2013-03-20 13:19:00,
2013-03-20 09:29:00,37.2,-1.3,29.99,WNW,282,12.0,15.0,19,0.00,CLR,,0.00,WeatherDisplay:10.37,2013-03-20 13:29:00,
2013-03-20 09:39:00,37.8,-0.9,29.99,West,278,9.0,17.0,19,0.00,CLR,,0.00,WeatherDisplay:10.37,2013-03-20 13:39:00,
2013-03-20 09:49:00,38.1,-4.2,29.99,WNW,282,8.0,15.0,16,0.00,CLR,,0.00,WeatherDisplay:10.37,2013-03-20 13:49:00,
2013-03-20 09:59:00,38.6,-3.8,29.99,West,279,8.0,16.0,16,0.00,CLR,,0.00,WeatherDisplay:10.37,2013-03-20 13:59:00,
2013-03-20 10:09:00,39.1,-3.4,29.99,West,273,9.0,18.0,16,0.00,CLR,,0.00,WeatherDisplay:10.37,2013-03-20 14:09:00,
2013-03-20 10:19:00,39.8,-2.8,29.99,West,274,16.0,23.0,16,0.00,CLR,,0.00,WeatherDisplay:10.37,2013-03-20 14:19:00,
2013-03-20 10:29:00,40.2,-2.5,29.99,West,281,9.0,15.0,16,0.00,CLR,,0.00,WeatherDisplay:10.37,2013-03-20 14:29:00,
2013-03-20 10:39:00,40.8,-2.0,29.99,West,280,12.0,17.0,16,0.00,CLR,,0.00,WeatherDisplay:10.37,2013-03-20 14:39:00,
2013-03-20 10:49:00,40.5,-2.3,29.99,WNW,282,14.0,15.0,16,0.00,CLR,,0.00,WeatherDisplay:10.37,2013-03-20 14:49:00,
2013-03-20 10:59:00,41.2,-1.7,29.96,West,276,18.0,21.0,16,0.00,CLR,,0.00,WeatherDisplay:10.37,2013-03-20 14:59:00,
2013-03-20 11:09:00,41.4,-1.6,29.96,West,268,12.0,20.0,16,0.00,CLR,,0.00,WeatherDisplay:10.37,2013-03-20 15:09:00,
2013-03-20 11:19:00,42.1,-1.0,29.96,West,278,10.0,20.0,16,0.00,CLR,,0.00,WeatherDisplay:10.37,2013-03-20 15:19:00,
2013-03-20 11:29:00,43.0,-1.6,29.96,West,273,9.0,17.0,15,0.00,CLR,,0.00,WeatherDisplay:10.37,2013-03-20 15:29:00,
2013-03-20 11:39:00,43.2,-1.5,29.96,West,276,9.0,16.0,15,0.00,CLR,,0.00,WeatherDisplay:10.37,2013-03-20 15:39:00,
2013-03-20 11:49:00,43.2,-1.4,29.96,West,271,9.0,17.0,15,0.00,CLR,,0.00,WeatherDisplay:10.37,2013-03-20 15:49:00,
2013-03-20 11:59:00,43.5,-1.2,29.96,West,279,7.0,19.0,15,0.00,CLR,,0.00,WeatherDisplay:10.37,2013-03-20 15:59:00,
2013-03-20 12:09:00,43.4,-1.3,29.96,West,281,10.0,20.0,15,0.00,CLR,,0.00,WeatherDisplay:10.37,2013-03-20 16:09:00,
2013-03-20 12:19:00,43.9,-0.9,29.96,West,270,13.0,17.0,15,0.00,CLR,,0.00,WeatherDisplay:10.37,2013-03-20 16:19:00,
2013-03-20 12:29:00,44.2,-0.6,29.93,West,275,13.0,20.0,15,0.00,CLR,,0.00,WeatherDisplay:10.37,2013-03-20 16:29:00,
2013-03-20 12:39:00,44.8,-0.2,29.93,WSW,256,5.0,14.0,15,0.00,CLR,,0.00,WeatherDisplay:10.37,2013-03-20 16:39:00,
2013-03-20 12:49:00,44.5,-0.4,29.93,West,272,13.0,22.0,15,0.00,CLR,,0.00,WeatherDisplay:10.37,2013-03-20 16:49:00,
2013-03-20 12:59:00,45.1,0.1,29.93,WNW,286,8.0,20.0,15,0.00,CLR,,0.00,WeatherDisplay:10.37,2013-03-20 16:59:00,
2013-03-20 13:09:00,46.0,0.9,29.93,West,280,14.0,21.0,15,0.00,CLR,,0.00,WeatherDisplay:10.37,2013-03-20 17:09:00,
2013-03-20 13:19:00,46.0,0.9,29.93,West,271,12.0,20.0,15,0.00,CLR,,0.00,WeatherDisplay:10.37,2013-03-20 17:19:00,
2013-03-20 13:29:00,45.2,0.2,29.90,WNW,282,13.0,20.0,15,0.00,CLR,,0.00,WeatherDisplay:10.37,2013-03-20 17:29:00,
2013-03-20 13:39:00,46.0,0.9,29.90,WNW,285,15.0,21.0,15,0.00,CLR,,0.00,WeatherDisplay:10.37,2013-03-20 17:39:00,
2013-03-20 13:49:00,46.0,0.9,29.90,WNW,285,8.0,28.0,15,0.00,CLR,,0.00,WeatherDisplay:10.37,2013-03-20 17:49:00,
2013-03-20 13:59:00,47.3,0.4,29.90,WNW,293,9.0,15.0,14,0.00,CLR,,0.00,WeatherDisplay:10.37,2013-03-20 17:59:00,
2013-03-20 14:09:00,45.7,0.6,29.87,West,281,14.0,21.0,15,0.00,CLR,,0.00,WeatherDisplay:10.37,2013-03-20 18:09:00,
2013-03-20 14:19:00,47.3,0.4,29.87,West,279,12.0,16.0,14,0.00,CLR,,0.00,WeatherDisplay:10.37,2013-03-20 18:19:00,
2013-03-20 14:29:00,46.9,0.1,29.87,West,273,12.0,17.0,14,0.00,CLR,,0.00,WeatherDisplay:10.37,2013-03-20 18:29:00,
2013-03-20 14:39:00,46.9,0.1,29.84,West,267,10.0,17.0,14,0.00,CLR,,0.00,WeatherDisplay:10.37,2013-03-20 18:39:00,
2013-03-20 14:49:00,48.2,1.1,29.84,West,279,10.0,15.0,14,0.00,CLR,,0.00,WeatherDisplay:10.37,2013-03-20 18:49:00,
2013-03-20 14:59:00,48.3,1.2,29.84,West,273,10.0,18.0,14,0.00,CLR,,0.00,WeatherDisplay:10.37,2013-03-20 18:59:00,
2013-03-20 15:09:00,47.7,0.8,29.84,West,266,14.0,15.0,14,0.00,CLR,,0.00,WeatherDisplay:10.37,2013-03-20 19:09:00,
2013-03-20 15:19:00,47.1,0.3,29.84,West,277,8.0,18.0,14,0.00,CLR,,0.00,WeatherDisplay:10.37,2013-03-20 19:19:00,
2013-03-20 15:29:00,47.7,0.7,29.81,WNW,282,12.0,17.0,14,0.00,CLR,,0.00,WeatherDisplay:10.37,2013-03-20 19:29:00,
2013-03-20 15:39:00,48.2,1.1,29.81,WNW,286,9.0,13.0,14,0.00,CLR,,0.00,WeatherDisplay:10.37,2013-03-20 19:39:00,
2013-03-20 15:49:00,48.0,1.0,29.81,WNW,287,12.0,20.0,14,0.00,CLR,,0.00,WeatherDisplay:10.37,2013-03-20 19:49:00,
2013-03-20 15:59:00,48.6,1.4,29.81,WNW,292,10.0,20.0,14,0.00,CLR,,0.00,WeatherDisplay:10.37,2013-03-20 19:59:00,
2013-03-20 16:09:00,48.9,1.7,29.81,WNW,284,10.0,17.0,14,0.00,CLR,,0.00,WeatherDisplay:10.37,2013-03-20 20:09:00,
2013-03-20 16:19:00,48.5,1.4,29.81,WNW,282,9.0,20.0,14,0.00,CLR,,0.00,WeatherDisplay:10.37,2013-03-20 20:19:00,
2013-03-20 16:29:00,47.8,0.8,29.81,West,275,12.0,20.0,14,0.00,CLR,,0.00,WeatherDisplay:10.37,2013-03-20 20:29:00,
2013-03-20 16:39:00,48.6,1.4,29.81,West,281,6.0,13.0,14,0.00,CLR,,0.00,WeatherDisplay:10.37,2013-03-20 20:39:00,
2013-03-20 16:49:00,48.4,1.3,29.81,WNW,290,9.0,15.0,14,0.00,CLR,,0.00,WeatherDisplay:10.37,2013-03-20 20:49:00,
2013-03-20 16:59:00,48.4,1.3,29.78,West,280,13.0,23.0,14,0.00,CLR,,0.00,WeatherDisplay:10.37,2013-03-20 20:59:00,
2013-03-20 17:09:00,48.2,1.1,29.78,WNW,283,8.0,16.0,14,0.00,CLR,,0.00,WeatherDisplay:10.37,2013-03-20 21:09:00,
2013-03-20 17:19:00,48.4,1.3,29.78,West,281,10.0,15.0,14,0.00,CLR,,0.00,WeatherDisplay:10.37,2013-03-20 21:19:00,
2013-03-20 17:29:00,47.7,0.7,29.78,WNW,285,9.0,16.0,14,0.00,CLR,,0.00,WeatherDisplay:10.37,2013-03-20 21:29:00,
2013-03-20 17:39:00,47.5,0.6,29.78,West,277,10.0,15.0,14,0.00,CLR,,0.00,WeatherDisplay:10.37,2013-03-20 21:39:00,
2013-03-20 17:49:00,47.7,0.7,29.78,West,280,10.0,14.0,14,0.00,CLR,,0.00,WeatherDisplay:10.37,2013-03-20 21:49:00,
2013-03-20 17:59:00,48.0,0.9,29.78,West,281,9.0,15.0,14,0.00,CLR,,0.00,WeatherDisplay:10.37,2013-03-20 21:59:00,
2013-03-20 18:09:00,47.3,0.4,29.78,WNW,286,6.0,18.0,14,0.00,CLR,,0.00,WeatherDisplay:10.37,2013-03-20 22:09:00,
2013-03-20 18:19:00,46.9,0.1,29.78,WNW,290,7.0,13.0,14,0.00,CLR,,0.00,WeatherDisplay:10.37,2013-03-20 22:19:00,
2013-03-20 18:29:00,46.8,0.0,29.78,WNW,288,5.0,11.0,14,0.00,CLR,,0.00,WeatherDisplay:10.37,2013-03-20 22:29:00,
2013-03-20 18:39:00,46.4,1.2,29.75,West,279,6.0,9.0,15,0.00,CLR,,0.00,WeatherDisplay:10.37,2013-03-20 22:39:00,
2013-03-20 18:49:00,46.2,1.0,29.75,WNW,288,6.0,10.0,15,0.00,CLR,,0.00,WeatherDisplay:10.37,2013-03-20 22:49:00,
2013-03-20 18:59:00,46.4,1.2,29.78,WNW,282,13.0,17.0,15,0.00,CLR,,0.00,WeatherDisplay:10.37,2013-03-20 22:59:00,
2013-03-20 19:09:00,45.7,0.6,29.78,West,280,8.0,14.0,15,0.00,CLR,,0.00,WeatherDisplay:10.37,2013-03-20 23:09:00,
2013-03-20 19:19:00,45.5,0.4,29.78,WNW,282,8.0,13.0,15,0.00,CLR,,0.00,WeatherDisplay:10.37,2013-03-20 23:19:00,
2013-03-20 19:29:00,45.1,0.1,29.78,WNW,282,10.0,13.0,15,0.00,CLR,,0.00,WeatherDisplay:10.37,2013-03-20 23:29:00,
2013-03-20 19:39:00,44.4,-0.4,29.78,West,280,8.0,13.0,15,0.00,CLR,,0.00,WeatherDisplay:10.37,2013-03-20 23:39:00,
2013-03-20 19:49:00,44.1,-0.7,29.78,WNW,289,3.0,12.0,15,0.00,CLR,,0.00,WeatherDisplay:10.37,2013-03-20 23:49:00,
2013-03-20 19:59:00,44.1,-0.7,29.78,NW,307,3.0,6.0,15,0.00,CLR,,0.00,WeatherDisplay:10.37,2013-03-20 23:59:00,
2013-03-20 20:09:00,43.5,-1.2,29.81,NW,322,6.0,7.0,15,0.00,CLR,,0.00,WeatherDisplay:10.37,2013-03-21 00:09:00,
2013-03-20 20:19:00,42.8,-0.4,29.81,NW,319,7.0,10.0,16,0.00,CLR,,0.00,WeatherDisplay:10.37,2013-03-21 00:19:00,
2013-03-20 20:29:00,42.1,-1.0,29.81,NW,310,6.0,8.0,16,0.00,CLR,,0.00,WeatherDisplay:10.37,2013-03-21 00:29:00,
2013-03-20 20:39:00,41.7,-1.3,29.81,NW,319,5.0,8.0,16,0.00,CLR,,0.00,WeatherDisplay:10.37,2013-03-21 00:39:00,
2013-03-20 20:49:00,40.9,0.5,29.81,NNW,330,8.0,10.0,18,0.00,CLR,,0.00,WeatherDisplay:10.37,2013-03-21 00:49:00,
2013-03-20 20:59:00,39.8,-0.4,29.81,NNW,334,5.0,9.0,18,0.00,CLR,,0.00,WeatherDisplay:10.37,2013-03-21 00:59:00,
2013-03-20 21:09:00,39.6,2.8,29.84,NW,314,3.0,8.0,21,0.00,CLR,,0.00,WeatherDisplay:10.37,2013-03-21 01:09:00,
2013-03-20 21:19:00,39.0,5.2,29.84,NW,321,5.0,8.0,24,0.00,CLR,,0.00,WeatherDisplay:10.37,2013-03-21 01:19:00,
2013-03-20 21:29:00,38.1,8.6,29.84,NNW,330,6.0,11.0,29,0.00,CLR,,0.00,WeatherDisplay:10.37,2013-03-21 01:29:00,
2013-03-20 21:39:00,37.4,10.2,29.84,NNW,327,6.0,11.0,32,0.00,CLR,,0.00,WeatherDisplay:10.37,2013-03-21 01:39:00,
2013-03-20 21:49:00,36.9,10.4,29.84,NW,316,0.0,9.0,33,0.00,CLR,,0.00,WeatherDisplay:10.37,2013-03-21 01:49:00,
2013-03-20 21:59:00,36.3,9.9,29.84,NNW,327,0.0,6.0,33,0.00,CLR,,0.00,WeatherDisplay:10.37,2013-03-21 01:59:00,
2013-03-20 22:09:00,36.0,10.9,29.84,NNW,329,6.0,8.0,35,0.00,CLR,,0.00,WeatherDisplay:10.37,2013-03-21 02:09:00,
2013-03-20 22:19:00,36.3,13.7,29.84,WNW,301,6.0,8.0,39,0.00,CLR,,0.00,WeatherDisplay:10.37,2013-03-21 02:19:00,
2013-03-20 22:29:00,36.5,14.4,29.84,NW,319,7.0,9.0,40,0.00,CLR,,0.00,WeatherDisplay:10.37,2013-03-21 02:29:00,
2013-03-20 22:39:00,36.5,14.4,29.84,NW,323,6.0,12.0,40,0.00,CLR,,0.00,WeatherDisplay:10.37,2013-03-21 02:39:00,
2013-03-20 22:49:00,36.3,14.8,29.84,NW,310,6.0,11.0,41,0.00,CLR,,0.00,WeatherDisplay:10.37,2013-03-21 02:49:00,
2013-03-20 22:59:00,36.3,14.8,29.84,NW,311,5.0,10.0,41,0.00,CLR,,0.00,WeatherDisplay:10.37,2013-03-21 02:59:00,
2013-03-20 23:09:00,36.1,14.7,29.84,NW,310,5.0,9.0,41,0.00,CLR,,0.00,WeatherDisplay:10.37,2013-03-21 03:09:00,
2013-03-20 23:19:00,36.1,14.7,29.84,NW,313,6.0,12.0,41,0.00,CLR,,0.00,WeatherDisplay:10.37,2013-03-21 03:19:00,
2013-03-20 23:29:00,36.0,14.5,29.84,NW,306,5.0,8.0,41,0.00,CLR,,0.00,WeatherDisplay:10.37,2013-03-21 03:29:00,
2013-03-20 23:39:00,35.8,14.9,29.84,WNW,302,6.0,10.0,42,0.00,CLR,,0.00,WeatherDisplay:10.37,2013-03-21 03:39:00,
2013-03-20 23:49:00,35.6,14.7,29.84,NW,307,6.0,9.0,42,0.00,CLR,,0.00,WeatherDisplay:10.37,2013-03-21 03:49:00,
2013-03-20 23:59:00,35.6,14.2,29.84,NW,314,6.0,10.0,41,0.00,CLR,,0.00,WeatherDisplay:10.37,2013-03-21 03:59:00,